Time;durP1;ratioP1;P1;durP2;ratioP2;P2;SDS_P1;SDS_P2;PMS_P1;PMS_P2;Temp;Humidity;BMP_temperature;BMP_pressure;BME280_temperature;BME280_humidity;BME280_pressure;Samples;Min_cycle;Max_cycle;Signal;HPM_P1;HPM_P2
2022/01/26 00:07:41;;;;;;;5.60;3.05;;;20.40;45.00;;;;;;5010653;28;20062;-81
2022/01/26 00:10:06;;;;;;;4.78;2.88;;;20.40;45.00;;;;;;5010296;28;20096;-81
2022/01/26 00:12:32;;;;;;;5.13;3.00;;;20.40;45.00;;;;;;5011037;28;20077;-81
2022/01/26 00:14:58;;;;;;;6.55;3.17;;;20.40;45.00;;;;;;5010117;28;20478;-81
2022/01/26 00:17:23;;;;;;;6.47;3.35;;;20.40;45.00;;;;;;5008097;28;20059;-81
2022/01/26 00:19:55;;;;;;;6.15;3.17;;;20.30;45.00;;;;;;5010874;28;20045;-82
2022/01/26 00:38:43;;;;;;;5.82;3.67;;;20.20;45.10;;;;;;5038916;28;20132;-81
2022/01/26 00:41:13;;;;;;;5.00;2.78;;;21.20;45.60;;;;;;5014050;28;20409;-81
2022/01/26 00:43:43;;;;;;;6.07;3.40;;;20.20;45.10;;;;;;5014654;28;20523;-81
2022/01/26 00:46:09;;;;;;;5.75;3.33;;;20.20;45.10;;;;;;5013738;28;20049;-81
2022/01/26 00:48:37;;;;;;;6.13;3.08;;;20.20;45.20;;;;;;5014392;28;20045;-81
2022/01/26 00:51:05;;;;;;;5.75;3.33;;;20.20;45.20;;;;;;5013340;28;20041;-81
2022/01/26 00:53:36;;;;;;;5.85;3.65;;;20.10;45.10;;;;;;5014018;28;20072;-81
2022/01/26 00:56:02;;;;;;;4.95;3.10;;;20.10;45.20;;;;;;5013961;28;20144;-81
2022/01/26 00:58:28;;;;;;;5.93;3.25;;;20.10;45.20;;;;;;5013377;28;20083;-81
2022/01/26 01:00:54;;;;;;;6.40;3.63;;;20.10;45.20;;;;;;5014205;28;20057;-81
2022/01/26 01:03:22;;;;;;;5.78;3.38;;;20.10;45.20;;;;;;5013869;28;20046;-81
2022/01/26 01:05:57;;;;;;;5.72;3.35;;;20.10;45.20;;;;;;5012907;28;20088;-81
2022/01/26 01:08:24;;;;;;;5.72;3.03;;;20.10;45.20;;;;;;5013586;28;20057;-81
2022/01/26 01:10:51;;;;;;;6.40;3.90;;;20.10;45.20;;;;;;5013610;28;20056;-81
2022/01/26 01:13:20;;;;;;;5.75;3.75;;;20.00;45.20;;;;;;5012963;28;20053;-81
2022/01/26 01:15:46;;;;;;;7.25;3.92;;;20.00;45.20;;;;;;5014470;28;20053;-81
2022/01/26 01:30:48;;;;;;;7.13;4.05;;;19.90;45.20;;;;;;5030994;28;20050;-81
2022/01/26 01:33:29;;;;;;;6.45;4.00;;;19.90;45.20;;;;;;5013010;28;20049;-81
2022/01/26 01:35:57;;;;;;;6.43;3.53;;;20.10;45.40;;;;;;5012366;28;20049;-81
2022/01/26 01:38:26;;;;;;;5.60;3.38;;;19.90;45.30;;;;;;5012310;28;20049;-81
2022/01/26 01:40:52;;;;;;;5.95;3.47;;;20.00;45.30;;;;;;5012048;28;20128;-81
2022/01/26 01:43:18;;;;;;;6.00;3.50;;;19.90;45.30;;;;;;5013643;28;20125;-81
2022/01/26 01:45:47;;;;;;;8.07;4.30;;;19.90;45.30;;;;;;5013268;28;20076;-81
2022/01/26 01:48:17;;;;;;;5.35;3.33;;;19.90;45.30;;;;;;5012767;28;20107;-81
2022/01/26 01:50:43;;;;;;;5.40;3.53;;;19.90;45.30;;;;;;5013170;28;20100;-81
2022/01/26 01:53:09;;;;;;;6.90;3.92;;;19.90;45.40;;;;;;5012991;28;20049;-81
2022/01/26 01:55:48;;;;;;;6.50;4.18;;;19.80;45.30;;;;;;5011861;28;20065;-81
2022/01/26 01:58:15;;;;;;;5.22;3.50;;;19.80;45.40;;;;;;5012951;28;20053;-81
2022/01/26 02:00:40;;;;;;;5.57;3.53;;;19.80;45.30;;;;;;5012939;28;20517;-81
2022/01/26 02:03:06;;;;;;;5.10;3.17;;;19.80;45.30;;;;;;5012467;28;20144;-81
2022/01/26 02:05:32;;;;;;;7.15;3.80;;;19.80;45.30;;;;;;5012599;28;20041;-81
2022/01/26 02:07:58;;;;;;;6.28;3.40;;;19.80;45.30;;;;;;5012631;28;20452;-81
2022/01/26 02:10:25;;;;;;;6.68;3.58;;;19.80;45.40;;;;;;5011793;28;20048;-81
2022/01/26 02:12:55;;;;;;;6.30;3.78;;;19.80;45.40;;;;;;5013036;28;20497;-81
2022/01/26 02:15:26;;;;;;;5.85;3.83;;;19.80;45.40;;;;;;5012025;28;20049;-81
2022/01/26 02:59:25;;;;;;;7.13;4.32;;;19.60;45.50;;;;;;4991456;28;20455;-81
2022/01/26 03:01:52;;;;;;;5.93;3.67;;;19.60;45.50;;;;;;5011418;28;20049;-81
2022/01/26 03:09:23;;;;;;;5.93;3.60;;;19.60;45.50;;;;;;5011809;28;20441;-81
2022/01/26 03:11:49;;;;;;;6.25;3.80;;;19.60;45.60;;;;;;5010810;28;20543;-80
2022/01/26 03:17:07;;;;;;;6.13;3.80;;;19.70;45.60;;;;;;5013739;28;20052;-80
2022/01/26 03:19:40;;;;;;;6.35;3.83;;;19.50;45.60;;;;;;5010792;28;20042;-80
2022/01/26 03:30:47;;;;;;;5.53;3.58;;;19.50;45.60;;;;;;5031060;28;20527;-81
2022/01/26 03:33:36;;;;;;;6.78;3.97;;;19.50;45.60;;;;;;5030156;28;20063;-80
2022/01/26 03:35:58;;;;;;;6.10;3.78;;;19.50;45.60;;;;;;5030718;28;20053;-80
2022/01/26 03:38:39;;;;;;;6.50;3.92;;;19.70;45.70;;;;;;5031022;28;20648;-80
2022/01/26 03:41:33;;;;;;;5.13;3.55;;;19.50;45.60;;;;;;5030893;28;20135;-81
2022/01/26 03:43:59;;;;;;;6.03;3.95;;;19.40;45.60;;;;;;5031024;28;20048;-80
2022/01/26 03:46:25;;;;;;;5.25;3.55;;;19.40;45.60;;;;;;5014620;28;20067;-80
2022/01/26 03:48:50;;;;;;;5.82;3.78;;;19.40;45.60;;;;;;5030103;28;20132;-80
2022/01/26 03:51:16;;;;;;;7.40;4.07;;;19.40;45.60;;;;;;5030829;28;20140;-81
2022/01/26 03:53:41;;;;;;;5.90;3.25;;;19.40;45.60;;;;;;5030739;28;20037;-80
2022/01/26 03:56:07;;;;;;;5.75;3.80;;;19.40;45.60;;;;;;5030118;28;20095;-80
2022/01/26 03:58:32;;;;;;;5.32;3.30;;;19.40;45.60;;;;;;5030887;28;20412;-81
2022/01/26 04:00:58;;;;;;;6.00;3.53;;;19.40;45.60;;;;;;5030077;28;20037;-80
2022/01/26 04:03:24;;;;;;;5.88;3.55;;;19.40;45.60;;;;;;5033617;28;20076;-80
2022/01/26 04:05:49;;;;;;;6.45;3.30;;;19.40;45.60;;;;;;5034827;28;20483;-81
2022/01/26 04:08:21;;;;;;;6.75;4.10;;;19.40;45.60;;;;;;5034166;28;20411;-81
2022/01/26 04:11:11;;;;;;;6.32;3.20;;;19.40;45.70;;;;;;5034832;28;20056;-80
2022/01/26 04:13:36;;;;;;;4.93;3.13;;;19.40;45.60;;;;;;5034829;28;20064;-80
2022/01/26 04:16:02;;;;;;;4.82;2.90;;;19.40;45.70;;;;;;5034183;28;20052;-80
2022/01/26 04:18:34;;;;;;;6.07;3.50;;;19.40;45.70;;;;;;5034631;28;20041;-81
2022/01/26 04:21:05;;;;;;;6.07;3.53;;;19.40;45.70;;;;;;5034622;28;20056;-81
2022/01/26 04:23:43;;;;;;;5.93;3.75;;;19.40;45.70;;;;;;5033704;28;20048;-81
2022/01/26 04:26:10;;;;;;;4.95;3.22;;;19.40;45.60;;;;;;5034573;28;20229;-80
2022/01/26 04:28:43;;;;;;;5.40;3.33;;;19.40;45.60;;;;;;5034823;28;20133;-81
2022/01/26 04:31:09;;;;;;;6.72;3.42;;;19.40;45.70;;;;;;5033742;28;20099;-81
2022/01/26 04:33:35;;;;;;;5.38;3.22;;;19.30;45.60;;;;;;5034058;28;20052;-80
2022/01/26 04:36:03;;;;;;;5.75;3.45;;;19.40;45.70;;;;;;5033581;28;20052;-80
2022/01/26 04:38:36;;;;;;;5.57;3.28;;;19.30;45.60;;;;;;5034269;28;20049;-81
2022/01/26 04:43:41;;;;;;;5.43;3.00;;;19.30;45.70;;;;;;5033512;28;20430;-80
2022/01/26 04:46:08;;;;;;;5.30;3.55;;;19.30;45.60;;;;;;5034226;28;20053;-80
2022/01/26 04:48:33;;;;;;;4.47;2.83;;;19.30;45.70;;;;;;5036512;28;20147;-80
2022/01/26 04:50:59;;;;;;;6.72;3.00;;;19.30;45.70;;;;;;5033228;28;20159;-80
2022/01/26 04:53:24;;;;;;;6.57;3.55;;;19.30;45.70;;;;;;5031905;28;20056;-80
2022/01/26 04:55:52;;;;;;;5.50;3.22;;;19.30;45.70;;;;;;5033894;28;20048;-80
2022/01/26 04:58:17;;;;;;;5.47;3.30;;;19.30;45.70;;;;;;5033031;28;20041;-80
2022/01/26 05:00:43;;;;;;;4.75;2.80;;;19.30;45.70;;;;;;5033715;28;20053;-80
2022/01/26 05:03:08;;;;;;;5.57;3.58;;;19.30;45.70;;;;;;5034692;28;20402;-80
2022/01/26 05:05:34;;;;;;;4.97;2.67;;;19.30;45.80;;;;;;5034858;28;20061;-80
2022/01/26 05:07:59;;;;;;;5.47;3.00;;;19.30;45.80;;;;;;5031839;28;20198;-80
2022/01/26 05:10:25;;;;;;;4.28;2.75;;;19.40;45.90;;;;;;5031309;28;20496;-80
2022/01/26 05:12:50;;;;;;;5.45;3.22;;;19.40;45.90;;;;;;5032505;28;20052;-80
2022/01/26 05:15:20;;;;;;;4.85;2.67;;;19.40;46.00;;;;;;5034466;28;20041;-80
2022/01/26 05:17:45;;;;;;;4.47;2.50;;;19.40;46.00;;;;;;5033854;28;20507;-80
2022/01/26 05:20:11;;;;;;;4.97;2.80;;;19.40;46.00;;;;;;5027643;28;20148;-81
2022/01/26 05:22:39;;;;;;;4.80;2.90;;;19.50;46.10;;;;;;5033532;28;20044;-80
2022/01/26 05:25:04;;;;;;;4.55;2.45;;;19.80;46.30;;;;;;5033342;28;20045;-80
2022/01/26 05:27:30;;;;;;;5.15;2.65;;;19.50;46.10;;;;;;5032505;28;20098;-80
2022/01/26 05:29:55;;;;;;;6.22;2.63;;;19.50;46.10;;;;;;5031122;28;20154;-81
2022/01/26 05:32:21;;;;;;;4.07;2.28;;;19.60;46.20;;;;;;5032351;28;20094;-80
2022/01/26 05:34:49;;;;;;;4.15;2.33;;;19.60;46.20;;;;;;5033249;28;20053;-80
2022/01/26 05:37:15;;;;;;;5.10;2.95;;;19.60;46.20;;;;;;5032947;28;20081;-80
2022/01/26 05:39:40;;;;;;;5.07;2.65;;;19.60;46.20;;;;;;5052447;28;20084;-80
2022/01/26 05:42:06;;;;;;;4.25;2.40;;;19.70;46.20;;;;;;5032868;28;20040;-80
2022/01/26 05:44:32;;;;;;;5.68;2.88;;;19.70;46.10;;;;;;5031302;28;20057;-80
2022/01/26 05:46:58;;;;;;;5.03;2.63;;;19.70;46.10;;;;;;5032385;28;20049;-81
2022/01/26 05:49:25;;;;;;;4.50;2.60;;;19.70;46.10;;;;;;5032744;28;20706;-80
2022/01/26 05:51:50;;;;;;;4.05;2.45;;;19.80;46.10;;;;;;5032629;28;20075;-82
2022/01/26 05:54:16;;;;;;;4.05;2.45;;;19.80;46.00;;;;;;5031969;28;20044;-83
2022/01/26 05:56:42;;;;;;;4.82;2.78;;;19.80;46.10;;;;;;5032723;28;20076;-83
2022/01/26 05:59:09;;;;;;;4.90;2.55;;;19.70;45.90;;;;;;5032761;28;20059;-83
2022/01/26 06:01:35;;;;;;;4.35;2.70;;;19.80;46.00;;;;;;5032171;28;20495;-82
2022/01/26 06:04:00;;;;;;;4.75;2.53;;;19.90;46.00;;;;;;5032647;28;20045;-82
2022/01/26 06:06:26;;;;;;;5.50;2.13;;;19.90;46.00;;;;;;5032281;28;20055;-83
2022/01/26 06:08:51;;;;;;;4.43;2.30;;;19.90;46.00;;;;;;5030022;28;20631;-81
2022/01/26 06:11:17;;;;;;;4.93;2.80;;;19.90;45.90;;;;;;5027695;28;20048;-82
2022/01/26 06:13:42;;;;;;;4.25;2.33;;;19.90;45.90;;;;;;5031784;28;20041;-83
2022/01/26 06:16:08;;;;;;;4.40;2.28;;;19.90;45.90;;;;;;5031775;28;20373;-83
2022/01/26 06:18:34;;;;;;;4.60;2.30;;;19.90;45.90;;;;;;5030656;28;20083;-82
2022/01/26 06:20:59;;;;;;;4.28;2.13;;;19.90;45.90;;;;;;5036830;28;20135;-82
2022/01/26 06:23:25;;;;;;;3.45;2.20;;;20.00;45.90;;;;;;5031586;28;20045;-82
2022/01/26 06:25:55;;;;;;;3.92;2.17;;;20.00;45.90;;;;;;5031484;28;20435;-82
2022/01/26 06:28:23;;;;;;;4.10;2.22;;;20.00;45.90;;;;;;5019344;28;20057;-82
2022/01/26 06:30:49;;;;;;;4.30;2.00;;;20.00;45.90;;;;;;5025943;28;20037;-83
2022/01/26 06:33:15;;;;;;;3.83;2.10;;;20.00;45.90;;;;;;5012382;28;20052;-83
2022/01/26 06:35:41;;;;;;;4.50;2.17;;;20.00;45.80;;;;;;5013696;28;20049;-83
2022/01/26 06:38:06;;;;;;;4.05;2.10;;;20.00;45.80;;;;;;5028261;28;20045;-83
2022/01/26 06:40:32;;;;;;;4.00;2.10;;;20.00;45.80;;;;;;5015661;28;20045;-83
2022/01/26 06:43:04;;;;;;;4.13;2.22;;;20.10;45.80;;;;;;5031160;28;20205;-83
2022/01/26 06:45:34;;;;;;;3.75;2.08;;;20.10;45.80;;;;;;5032017;28;20521;-80
2022/01/26 06:50:37;;;;;;;4.40;2.35;;;20.10;45.80;;;;;;5013619;28;20054;-82
2022/01/26 06:53:03;;;;;;;4.18;2.40;;;20.10;45.80;;;;;;5002368;28;20045;-81
2022/01/26 06:55:29;;;;;;;3.97;2.15;;;20.10;45.70;;;;;;5011922;28;20057;-82
2022/01/26 06:57:55;;;;;;;5.05;2.42;;;20.10;45.70;;;;;;5012081;28;20067;-81
2022/01/26 07:00:21;;;;;;;4.32;2.28;;;20.20;45.80;;;;;;5010205;28;20045;-83
2022/01/26 07:02:46;;;;;;;4.18;2.20;;;20.20;45.80;;;;;;5009860;28;20128;-82
2022/01/26 07:05:12;;;;;;;4.40;2.28;;;20.20;45.80;;;;;;5011419;28;20057;-82
2022/01/26 07:07:38;;;;;;;4.65;2.28;;;20.20;45.70;;;;;;5009016;28;20124;-79
2022/01/26 07:10:04;;;;;;;4.88;2.70;;;20.20;45.70;;;;;;5006062;28;20173;-81
2022/01/26 07:12:30;;;;;;;4.60;2.47;;;20.20;45.70;;;;;;5027730;28;20057;-82
2022/01/26 07:23:07;;;;;;;4.75;2.47;;;20.30;45.70;;;;;;5014804;28;20501;-83
2022/01/26 07:25:33;;;;;;;4.53;2.25;;;20.30;45.70;;;;;;5029835;28;20049;-82
2022/01/26 07:28:02;;;;;;;6.03;2.88;;;20.30;45.60;;;;;;5011097;28;20064;-83
2022/01/26 07:30:28;;;;;;;4.95;2.42;;;20.50;45.70;;;;;;5008583;28;20474;-81
2022/01/26 07:32:54;;;;;;;5.75;2.55;;;20.30;45.60;;;;;;5008906;28;20688;-82
2022/01/26 07:35:19;;;;;;;5.57;2.75;;;20.30;45.60;;;;;;5002544;28;20056;-79
2022/01/26 07:37:45;;;;;;;4.15;2.13;;;20.30;45.60;;;;;;5002921;28;20046;-80
2022/01/26 07:40:13;;;;;;;4.68;2.58;;;20.30;45.60;;;;;;5006851;28;20140;-79
2022/01/26 07:42:38;;;;;;;4.40;2.38;;;20.30;45.50;;;;;;5010685;28;20037;-79
2022/01/26 07:45:06;;;;;;;4.50;2.17;;;20.30;45.50;;;;;;5010336;28;20052;-79
2022/01/26 07:47:32;;;;;;;4.47;2.42;;;20.30;45.50;;;;;;5013140;28;20046;-80
2022/01/26 07:50:01;;;;;;;5.63;2.70;;;20.30;45.50;;;;;;5029823;28;20061;-79
2022/01/26 07:52:30;;;;;;;5.07;2.53;;;20.30;45.40;;;;;;5030640;28;20049;-80
2022/01/26 07:54:55;;;;;;;5.28;2.42;;;20.30;45.40;;;;;;5030019;28;20087;-79
2022/01/26 07:57:22;;;;;;;5.65;2.80;;;20.20;45.40;;;;;;5030453;28;20076;-80
2022/01/26 07:59:47;;;;;;;7.32;2.85;;;20.20;45.40;;;;;;5031072;28;20119;-80
2022/01/26 08:02:13;;;;;;;4.55;2.47;;;20.20;45.30;;;;;;5030109;28;20764;-79
2022/01/26 08:04:38;;;;;;;5.35;2.50;;;20.20;45.30;;;;;;5030641;28;20049;-79
2022/01/26 08:07:04;;;;;;;5.63;2.40;;;20.20;45.30;;;;;;5034799;28;20084;-79
2022/01/26 08:09:29;;;;;;;4.85;2.50;;;20.30;45.30;;;;;;5011213;28;20396;-80
2022/01/26 08:11:55;;;;;;;4.60;2.42;;;20.20;45.20;;;;;;4991593;28;20086;-80
2022/01/26 08:14:21;;;;;;;4.97;2.58;;;20.50;45.50;;;;;;4995356;28;20041;-80
2022/01/26 08:16:46;;;;;;;6.68;3.22;;;20.20;45.30;;;;;;5011166;28;20734;-80
2022/01/26 08:19:13;;;;;;;4.63;2.28;;;20.20;45.30;;;;;;5000249;28;20050;-81
2022/01/26 08:21:38;;;;;;;17.85;8.48;;;20.20;45.30;;;;;;4998727;28;20060;-83
2022/01/26 08:24:12;;;;;;;15.45;7.15;;;20.20;45.00;;;;;;5012792;28;20041;-80
2022/01/26 08:26:42;;;;;;;12.35;6.80;;;20.10;44.80;;;;;;5005695;28;20402;-80
2022/01/26 08:29:18;;;;;;;13.90;7.10;;;20.10;44.90;;;;;;5009131;28;20103;-81
2022/01/26 08:31:44;;;;;;;14.80;7.22;;;20.00;44.90;;;;;;5010139;28;20053;-81
2022/01/26 08:34:10;;;;;;;12.65;7.18;;;20.00;45.10;;;;;;5006596;28;20049;-81
2022/01/26 08:36:36;;;;;;;13.60;7.05;;;20.00;45.10;;;;;;5004270;28;20054;-82
2022/01/26 08:39:01;;;;;;;12.77;7.18;;;19.90;45.20;;;;;;5004077;28;20136;-82
2022/01/26 08:41:28;;;;;;;14.13;7.78;;;19.90;45.20;;;;;;5005923;28;20705;-82
2022/01/26 08:43:54;;;;;;;11.90;6.90;;;19.90;45.30;;;;;;5009676;28;20052;-84
2022/01/26 08:46:19;;;;;;;15.00;7.28;;;20.00;46.10;;;;;;5010186;28;20053;-83
2022/01/26 08:48:45;;;;;;;13.77;7.18;;;19.90;45.40;;;;;;5011734;28;20045;-83
2022/01/26 08:51:10;;;;;;;12.18;7.15;;;19.90;45.40;;;;;;5012915;28;20060;-80
2022/01/26 08:53:36;;;;;;;13.02;6.63;;;19.90;45.50;;;;;;5031544;28;20057;-81
2022/01/26 08:56:01;;;;;;;15.48;7.00;;;19.90;45.60;;;;;;5013798;28;20057;-81
2022/01/26 08:58:27;;;;;;;11.82;6.43;;;19.90;45.50;;;;;;5013448;28;20037;-83
2022/01/26 09:00:54;;;;;;;10.30;6.10;;;20.30;45.80;;;;;;4997295;28;20195;-80
2022/01/26 09:03:20;;;;;;;11.45;6.50;;;19.90;45.50;;;;;;5011878;28;20079;-80
2022/01/26 09:05:45;;;;;;;12.45;6.72;;;19.90;45.50;;;;;;5013801;28;20045;-80
2022/01/26 09:08:11;;;;;;;11.45;6.10;;;19.90;45.50;;;;;;5013683;28;20098;-81
2022/01/26 09:10:39;;;;;;;13.13;7.47;;;19.90;45.40;;;;;;5012725;28;20049;-81
2022/01/26 09:13:04;;;;;;;14.52;7.25;;;19.90;45.40;;;;;;5002962;28;20111;-82
2022/01/26 09:15:31;;;;;;;14.32;7.85;;;20.50;45.80;;;;;;5013267;28;20045;-79
2022/01/26 09:17:58;;;;;;;11.40;6.55;;;19.90;45.50;;;;;;5011961;28;20128;-79
2022/01/26 09:20:24;;;;;;;12.27;7.10;;;19.90;45.50;;;;;;5013707;28;20049;-76
2022/01/26 09:22:49;;;;;;;13.27;7.38;;;20.00;45.60;;;;;;5009437;28;20057;-78
2022/01/26 09:25:15;;;;;;;10.70;6.47;;;19.90;45.60;;;;;;5009328;28;20144;-78
2022/01/26 09:27:41;;;;;;;11.38;5.15;;;20.00;45.70;;;;;;5003011;28;20072;-78
2022/01/26 09:30:07;;;;;;;9.60;4.90;;;20.00;45.70;;;;;;5020945;28;20515;-78
2022/01/26 09:32:33;;;;;;;10.02;5.40;;;20.00;45.60;;;;;;5012457;28;20047;-78
2022/01/26 09:34:59;;;;;;;10.18;5.30;;;20.00;45.60;;;;;;5015165;28;20481;-78
2022/01/26 09:37:24;;;;;;;8.45;5.25;;;20.00;45.60;;;;;;5028217;28;20274;-78
2022/01/26 09:39:50;;;;;;;7.85;4.70;;;20.10;45.60;;;;;;5025745;28;20060;-78
2022/01/26 09:42:16;;;;;;;7.72;4.68;;;20.10;45.60;;;;;;5027083;28;20682;-78
2022/01/26 09:44:42;;;;;;;8.20;4.00;;;20.10;45.60;;;;;;5013489;28;20049;-77
2022/01/26 09:47:07;;;;;;;7.07;4.10;;;20.10;45.50;;;;;;5012161;28;20041;-78
2022/01/26 09:49:34;;;;;;;8.70;4.85;;;20.10;45.50;;;;;;5013004;28;20132;-78
2022/01/26 09:52:02;;;;;;;8.18;4.28;;;20.10;45.50;;;;;;5030298;28;20095;-77
2022/01/26 09:54:30;;;;;;;8.13;5.15;;;20.20;45.50;;;;;;5013274;28;20493;-78
2022/01/26 09:57:01;;;;;;;7.10;4.22;;;20.20;45.40;;;;;;5012336;28;20065;-77
2022/01/26 09:59:26;;;;;;;10.00;5.25;;;20.20;45.40;;;;;;5010951;28;20037;-78
2022/01/26 10:01:52;;;;;;;7.15;4.30;;;20.20;45.40;;;;;;5013717;28;20421;-79
2022/01/26 10:04:34;;;;;;;8.02;3.97;;;20.20;45.40;;;;;;5012791;28;20064;-79
2022/01/26 10:07:00;;;;;;;6.47;3.80;;;20.20;45.40;;;;;;5012428;28;20089;-77
2022/01/26 10:17:45;;;;;;;27.23;10.23;;;20.20;45.40;;;;;;5029800;28;20049;-78
2022/01/26 10:20:14;;;;;;;19.33;8.57;;;20.20;45.40;;;;;;5012699;28;20038;-77
2022/01/26 10:22:40;;;;;;;17.65;9.02;;;20.20;45.40;;;;;;5011378;28;20056;-78
2022/01/26 10:25:08;;;;;;;19.77;8.63;;;20.20;45.40;;;;;;4999350;28;20049;-77
2022/01/26 10:27:39;;;;;;;18.15;8.52;;;20.20;45.40;;;;;;5011940;28;20038;-77
2022/01/26 10:30:06;;;;;;;16.33;7.60;;;20.20;45.40;;;;;;5007426;28;20076;-77
2022/01/26 10:32:35;;;;;;;18.75;8.15;;;20.20;45.50;;;;;;5007876;28;20550;-78
2022/01/26 10:35:01;;;;;;;20.02;9.15;;;20.20;45.50;;;;;;5009759;28;20064;-78
2022/01/26 10:37:27;;;;;;;20.48;8.38;;;20.20;45.50;;;;;;5005333;28;20460;-79
2022/01/26 10:39:56;;;;;;;16.10;7.50;;;20.20;45.50;;;;;;5011561;28;20033;-79
2022/01/26 10:42:24;;;;;;;16.23;7.43;;;20.30;45.60;;;;;;5008304;28;20046;-79
2022/01/26 10:45:02;;;;;;;16.08;6.95;;;20.30;45.50;;;;;;5011483;28;20119;-79
2022/01/26 10:47:31;;;;;;;16.00;7.50;;;20.30;45.60;;;;;;5007243;28;20049;-78
2022/01/26 10:50:31;;;;;;;14.95;6.88;;;20.30;46.40;;;;;;5009149;28;20061;-79
2022/01/26 10:53:20;;;;;;;13.70;5.72;;;20.30;45.60;;;;;;5035463;28;20041;-78
2022/01/26 10:55:46;;;;;;;14.88;6.70;;;20.30;45.60;;;;;;5009110;28;20389;-79
2022/01/26 10:58:11;;;;;;;13.07;5.88;;;20.30;45.60;;;;;;5007939;28;20037;-79
2022/01/26 11:00:38;;;;;;;13.18;6.53;;;20.40;45.70;;;;;;5004071;28;20080;-78
2022/01/26 11:03:05;;;;;;;14.07;5.68;;;20.40;45.70;;;;;;4990727;28;20124;-78
2022/01/26 11:05:30;;;;;;;13.70;5.45;;;20.40;45.70;;;;;;4997455;28;20049;-78
2022/01/26 11:07:56;;;;;;;10.35;5.22;;;20.40;45.60;;;;;;5003609;28;20041;-80
2022/01/26 11:10:29;;;;;;;12.07;5.47;;;20.50;45.70;;;;;;5008115;28;20041;-80
2022/01/26 11:12:55;;;;;;;14.23;6.38;;;20.50;45.70;;;;;;4990750;28;20393;-80
2022/01/26 11:15:25;;;;;;;14.55;6.68;;;20.50;45.60;;;;;;5010228;28;20048;-84
2022/01/26 11:17:51;;;;;;;13.15;6.50;;;20.70;45.70;;;;;;5042405;28;20061;-79
2022/01/26 11:20:19;;;;;;;14.07;6.43;;;21.30;46.00;;;;;;5026697;28;20084;-79
2022/01/26 11:22:58;;;;;;;12.15;6.50;;;20.50;45.50;;;;;;4996353;28;20055;-79
2022/01/26 11:25:26;;;;;;;13.38;6.00;;;20.50;45.50;;;;;;5020217;28;20049;-79
2022/01/26 11:27:52;;;;;;;13.50;6.55;;;21.50;46.00;;;;;;5011374;28;20046;-79
2022/01/26 11:30:24;;;;;;;11.30;5.70;;;20.60;45.50;;;;;;5011749;28;20408;-79
2022/01/26 11:33:01;;;;;;;11.18;5.65;;;20.60;45.50;;;;;;5028444;28;20091;-80
2022/01/26 11:35:30;;;;;;;12.05;5.97;;;20.60;45.40;;;;;;5011625;28;20052;-79
2022/01/26 11:38:39;;;;;;;11.10;5.70;;;20.60;45.40;;;;;;5010889;28;20057;-78
2022/01/26 11:47:00;;;;;;;12.45;5.40;;;20.60;45.40;;;;;;5010659;28;20057;-79
2022/01/26 11:49:35;;;;;;;10.90;5.80;;;20.50;45.30;;;;;;5011432;28;20586;-79
2022/01/26 11:52:01;;;;;;;13.63;5.60;;;20.50;45.30;;;;;;5011068;28;20071;-79
2022/01/26 11:54:28;;;;;;;11.15;5.63;;;20.50;45.20;;;;;;4996828;28;20141;-78
2022/01/26 11:57:01;;;;;;;10.57;5.40;;;20.50;45.20;;;;;;5011234;28;20045;-78
2022/01/26 11:59:32;;;;;;;12.18;5.88;;;20.50;45.20;;;;;;5010578;28;20602;-78
2022/01/26 12:02:02;;;;;;;9.43;5.15;;;20.50;45.20;;;;;;5010852;28;20049;-78
2022/01/26 12:04:31;;;;;;;9.38;5.13;;;20.50;45.20;;;;;;4991710;28;20054;-79
2022/01/26 12:07:09;;;;;;;8.18;5.03;;;20.50;45.20;;;;;;5008337;28;20056;-77
2022/01/26 12:09:34;;;;;;;8.70;5.13;;;20.50;45.20;;;;;;4994734;28;20056;-79
2022/01/26 12:12:00;;;;;;;9.35;4.72;;;20.50;45.30;;;;;;5009383;28;20065;-80
2022/01/26 12:14:25;;;;;;;10.20;5.20;;;20.50;45.20;;;;;;5010423;28;20100;-79
2022/01/26 12:16:54;;;;;;;8.23;5.05;;;20.50;45.20;;;;;;5011452;28;20133;-80
2022/01/26 12:36:16;;;;;;;13.60;9.32;;;20.40;44.90;;;;;;4933895;29;20079;-83
2022/01/26 12:38:49;;;;;;;15.95;9.50;;;20.30;44.90;;;;;;5001446;28;20108;-82
2022/01/26 12:43:47;;;;;;;14.68;9.40;;;20.30;45.20;;;;;;5013289;28;20049;-83
2022/01/26 12:46:34;;;;;;;15.68;9.48;;;20.30;45.20;;;;;;5009366;28;20038;-82
2022/01/26 12:49:01;;;;;;;18.38;11.13;;;20.30;45.30;;;;;;5010453;28;20043;-82
2022/01/26 12:51:27;;;;;;;18.67;10.93;;;20.30;45.30;;;;;;4996497;28;20612;-82
2022/01/26 12:54:00;;;;;;;15.90;10.05;;;20.20;45.30;;;;;;4995483;28;20544;-81
2022/01/26 12:56:30;;;;;;;16.02;9.98;;;20.20;45.30;;;;;;5010407;28;20485;-82
2022/01/26 12:59:05;;;;;;;15.00;9.70;;;20.20;45.40;;;;;;5030350;28;20096;-83
2022/01/26 13:01:30;;;;;;;16.30;10.75;;;20.20;45.50;;;;;;5021813;28;20083;-82
2022/01/26 13:04:00;;;;;;;17.40;9.85;;;20.20;45.50;;;;;;5032748;28;20084;-83
2022/01/26 13:06:28;;;;;;;15.95;10.63;;;20.20;45.40;;;;;;5032675;28;20040;-83
2022/01/26 13:08:59;;;;;;;15.43;9.43;;;20.20;45.50;;;;;;5033347;28;20041;-82
2022/01/26 13:11:28;;;;;;;14.60;9.68;;;20.20;45.50;;;;;;5041318;28;20130;-83
2022/01/26 13:14:17;;;;;;;13.23;9.13;;;20.20;45.50;;;;;;5015722;28;20038;-82
2022/01/26 13:17:05;;;;;;;15.32;9.02;;;20.20;45.50;;;;;;5013520;28;20033;-83
2022/01/26 13:22:28;;;;;;;16.15;9.57;;;20.30;46.30;;;;;;5011722;28;20404;-83
2022/01/26 13:30:44;;;;;;;13.90;7.93;;;20.10;45.70;;;;;;5014999;28;20801;-82
2022/01/26 13:36:29;;;;;;;14.23;8.07;;;20.20;45.80;;;;;;5027563;28;20136;-81
2022/01/26 13:41:37;;;;;;;19.33;10.63;;;20.90;46.00;;;;;;5025263;28;20057;-80
2022/01/26 13:49:36;;;;;;;14.05;8.90;;;20.30;45.60;;;;;;4993204;28;20145;-80
2022/01/26 13:52:19;;;;;;;18.38;8.85;;;20.30;45.50;;;;;;4991898;28;20050;-80
2022/01/26 13:55:20;;;;;;;12.85;8.20;;;20.40;45.60;;;;;;4992670;28;20100;-80
2022/01/26 14:00:36;;;;;;;13.10;7.65;;;20.40;45.60;;;;;;5024979;28;20057;-81
2022/01/26 14:03:05;;;;;;;12.50;7.38;;;20.40;45.50;;;;;;5025650;28;20065;-81
2022/01/26 14:05:30;;;;;;;10.48;6.65;;;20.50;45.60;;;;;;4992691;28;20049;-80
2022/01/26 14:07:56;;;;;;;14.30;7.55;;;20.50;45.50;;;;;;4988553;28;20050;-80
2022/01/26 14:10:22;;;;;;;14.40;7.45;;;20.50;45.50;;;;;;4973446;28;20054;-81
2022/01/26 14:12:49;;;;;;;14.55;7.75;;;20.50;45.50;;;;;;4989015;28;20149;-81
2022/01/26 14:15:21;;;;;;;13.10;7.00;;;20.50;45.50;;;;;;4976776;28;20108;-80
2022/01/26 14:25:38;;;;;;;12.65;7.13;;;20.60;45.50;;;;;;5005754;28;20134;-79
2022/01/26 14:28:08;;;;;;;12.45;7.28;;;20.60;45.40;;;;;;4972549;28;20046;-79
2022/01/26 14:36:23;;;;;;;12.57;5.80;;;20.90;45.40;;;;;;4996293;28;20088;-81
2022/01/26 14:50:57;;;;;;;11.52;6.93;;;20.60;45.30;;;;;;5040560;28;20053;-79
2022/01/26 15:30:29;;;;;;;9.32;5.20;;;20.20;45.50;;;;;;5030998;28;20152;-80
2022/01/26 15:40:50;;;;;;;7.63;4.25;;;20.30;45.60;;;;;;5027607;28;20507;-81
2022/01/26 15:49:01;;;;;;;9.93;5.20;;;20.40;45.50;;;;;;5063695;28;20049;-79
2022/01/26 17:21:04;;;;;;;11.68;6.20;;;20.20;45.00;;;;;;5065521;28;20045;-79
2022/01/26 17:26:43;;;;;;;14.65;6.30;;;20.20;45.20;;;;;;5044661;28;20057;-78
2022/01/26 17:55:07;;;;;;;7.45;4.10;;;20.20;45.50;;;;;;5032648;28;20044;-81
2022/01/26 17:55:16;;;;;;;8.25;4.32;;;20.20;45.50;;;;;;5026940;28;20049;-81
2022/01/26 18:25:52;;;;;;;5.68;3.20;;;20.40;45.60;;;;;;4970943;28;20046;-82
2022/01/26 18:26:28;;;;;;;6.20;2.80;;;20.40;45.50;;;;;;4972731;28;20823;-82
2022/01/26 18:50:27;;;;;;;4.97;2.88;;;20.40;45.40;;;;;;4969222;28;20061;-83
2022/01/26 18:52:53;;;;;;;6.15;2.90;;;20.40;45.40;;;;;;5017808;28;20073;-82
2022/01/26 18:55:18;;;;;;;5.88;2.90;;;20.40;45.40;;;;;;4971699;28;20599;-81
2022/01/26 18:57:44;;;;;;;5.97;3.13;;;20.40;45.40;;;;;;5052992;28;20639;-82
2022/01/26 19:00:10;;;;;;;6.72;2.83;;;20.40;45.30;;;;;;5031063;28;20170;-83
2022/01/26 19:02:36;;;;;;;5.05;3.00;;;20.40;45.30;;;;;;5030963;28;20640;-83
2022/01/26 19:05:02;;;;;;;4.50;2.42;;;20.40;45.30;;;;;;5031920;28;20044;-82
2022/01/26 19:07:27;;;;;;;7.03;3.08;;;20.40;45.30;;;;;;5031424;28;20484;-82
2022/01/26 19:09:53;;;;;;;6.47;2.70;;;20.40;45.30;;;;;;5030660;28;20037;-82
2022/01/26 19:12:20;;;;;;;6.88;3.10;;;21.00;45.60;;;;;;5031090;28;20080;-82
2022/01/26 19:14:54;;;;;;;5.68;2.78;;;20.40;45.30;;;;;;5031680;28;20056;-82
2022/01/26 19:17:59;;;;;;;6.03;2.80;;;20.40;45.30;;;;;;5031002;28;20155;-82
2022/01/26 19:23:07;;;;;;;6.57;2.72;;;20.40;45.20;;;;;;5024092;28;20660;-82
2022/01/26 19:25:39;;;;;;;5.47;2.85;;;20.40;45.30;;;;;;4996445;28;20138;-82
2022/01/26 19:28:14;;;;;;;5.80;3.17;;;20.40;45.30;;;;;;5037559;28;20595;-82
2022/01/26 19:33:31;;;;;;;6.13;2.72;;;20.40;45.30;;;;;;5030964;28;20705;-82
2022/01/26 19:47:01;;;;;;;4.97;2.75;;;20.40;45.30;;;;;;4993104;28;20149;-82
2022/01/26 19:52:10;;;;;;;6.20;2.50;;;20.40;45.30;;;;;;4990425;28;20057;-82